Time;durP1;ratioP1;P1;durP2;ratioP2;P2;SDS_P1;SDS_P2;PMS_P1;PMS_P2;Temp;Humidity;BMP_temperature;BMP_pressure;BME280_temperature;BME280_humidity;BME280_pressure;Samples;Min_cycle;Max_cycle;Signal;HPM_P1;HPM_P2
2022/11/19 00:01:57;;;;;;;14.02;7.38;;;2.70;99.90;;;;;;5111253;28;20598;-87
2022/11/19 00:04:23;;;;;;;16.80;7.85;;;2.60;99.90;;;;;;5110554;28;20139;-87
2022/11/19 00:06:49;;;;;;;12.27;6.60;;;2.60;99.90;;;;;;5094395;28;20040;-87
2022/11/19 00:09:15;;;;;;;12.60;7.07;;;2.60;99.90;;;;;;5094782;28;20374;-88
2022/11/19 00:14:25;;;;;;;12.73;6.93;;;2.60;99.90;;;;;;5090527;28;20044;-87
2022/11/19 00:16:51;;;;;;;11.68;5.93;;;2.60;99.90;;;;;;5100782;28;20043;-87
2022/11/19 00:19:16;;;;;;;12.98;7.43;;;2.60;99.90;;;;;;5111636;28;20081;-87
2022/11/19 00:21:42;;;;;;;15.35;7.28;;;2.60;99.90;;;;;;5109206;28;20047;-87
2022/11/19 00:24:07;;;;;;;12.60;5.90;;;2.60;99.90;;;;;;5103031;28;20046;-87
2022/11/19 00:26:34;;;;;;;12.50;6.47;;;2.70;99.90;;;;;;5091835;28;20119;-87
2022/11/19 00:28:59;;;;;;;13.82;6.82;;;2.60;99.90;;;;;;5104706;28;20587;-87
2022/11/19 00:31:25;;;;;;;12.63;6.70;;;2.70;99.90;;;;;;5092987;28;20126;-87
2022/11/19 00:33:53;;;;;;;11.55;5.75;;;2.60;99.90;;;;;;5110238;28;20044;-87
2022/11/19 00:36:19;;;;;;;13.30;6.82;;;2.60;99.90;;;;;;5110122;28;20043;-87
2022/11/19 00:38:44;;;;;;;11.60;6.35;;;2.60;99.90;;;;;;5094130;28;20031;-87
2022/11/19 00:41:10;;;;;;;13.60;6.38;;;2.60;99.90;;;;;;5110098;28;20039;-87
2022/11/19 00:43:48;;;;;;;17.73;6.90;;;2.60;99.90;;;;;;5089937;28;20049;-87
2022/11/19 00:46:20;;;;;;;12.07;5.38;;;2.60;99.90;;;;;;5073484;28;20054;-87
2022/11/19 00:48:48;;;;;;;12.13;5.67;;;2.50;99.90;;;;;;5088913;28;20443;-87
2022/11/19 00:51:15;;;;;;;11.35;5.43;;;2.50;99.90;;;;;;5093288;28;20309;-87
2022/11/19 00:53:40;;;;;;;11.57;5.63;;;2.50;99.90;;;;;;5093151;28;20421;-87
2022/11/19 00:56:09;;;;;;;11.45;5.18;;;2.50;99.90;;;;;;5077393;28;20040;-87
2022/11/19 00:58:35;;;;;;;10.27;5.47;;;2.50;99.90;;;;;;5090001;28;20035;-87
2022/11/19 01:01:01;;;;;;;11.38;5.20;;;2.50;99.90;;;;;;5080430;28;20039;-87
2022/11/19 01:03:27;;;;;;;9.88;4.60;;;2.50;99.90;;;;;;5106847;28;20040;-87
2022/11/19 01:05:53;;;;;;;10.85;4.78;;;2.50;99.90;;;;;;5124138;27;20047;-87
2022/11/19 01:08:18;;;;;;;10.25;4.40;;;2.40;99.90;;;;;;5092820;28;20044;-87
2022/11/19 01:10:44;;;;;;;9.65;4.05;;;2.40;99.90;;;;;;5108925;28;20046;-87
2022/11/19 01:15:55;;;;;;;9.20;3.83;;;2.40;99.90;;;;;;5110467;28;20035;-87
2022/11/19 01:18:21;;;;;;;10.80;4.22;;;2.40;99.90;;;;;;5108965;28;20461;-87
2022/11/19 01:20:47;;;;;;;9.50;4.50;;;2.40;99.90;;;;;;5093321;28;20031;-87
2022/11/19 01:23:13;;;;;;;8.85;3.92;;;2.40;99.90;;;;;;5092455;28;20079;-87
2022/11/19 01:25:39;;;;;;;9.57;3.70;;;2.40;99.90;;;;;;5093073;28;20523;-87
2022/11/19 01:28:05;;;;;;;10.98;4.50;;;2.40;99.90;;;;;;5110222;28;20047;-87
2022/11/19 01:30:31;;;;;;;7.88;3.40;;;2.30;99.90;;;;;;5109860;28;20031;-87
2022/11/19 01:32:57;;;;;;;8.32;3.47;;;2.40;99.90;;;;;;5092692;28;20118;-87
2022/11/19 01:35:23;;;;;;;8.10;3.55;;;2.30;99.90;;;;;;5093409;28;20603;-87
2022/11/19 01:37:50;;;;;;;9.05;3.47;;;2.30;99.90;;;;;;5091855;28;20038;-87
2022/11/19 01:40:16;;;;;;;8.00;3.40;;;2.30;99.90;;;;;;5093232;28;20036;-87
2022/11/19 01:42:50;;;;;;;8.57;3.22;;;2.20;99.90;;;;;;5095488;28;20450;-87
2022/11/19 01:45:21;;;;;;;8.00;3.42;;;2.20;99.90;;;;;;5113094;28;20067;-87
2022/11/19 01:47:47;;;;;;;8.95;3.75;;;2.20;99.90;;;;;;5097448;28;20035;-87
2022/11/19 01:50:13;;;;;;;9.63;3.75;;;2.20;99.90;;;;;;5112745;28;20548;-87
2022/11/19 01:52:39;;;;;;;8.77;3.78;;;2.20;99.90;;;;;;5096711;28;20091;-87
2022/11/19 01:55:06;;;;;;;7.57;3.35;;;2.20;99.90;;;;;;5096566;28;20043;-87
2022/11/19 01:57:32;;;;;;;8.18;3.40;;;2.10;99.90;;;;;;5114169;28;20118;-87
2022/11/19 01:59:58;;;;;;;8.60;3.70;;;2.10;99.90;;;;;;5113757;28;20498;-87
2022/11/19 02:02:24;;;;;;;7.55;3.13;;;2.10;99.90;;;;;;5113103;28;20421;-87
2022/11/19 02:04:51;;;;;;;9.55;3.67;;;2.10;99.90;;;;;;5113773;28;20047;-87
2022/11/19 02:07:21;;;;;;;8.93;3.33;;;2.10;99.90;;;;;;5096046;28;20575;-88
2022/11/19 02:09:47;;;;;;;9.32;3.92;;;2.10;99.90;;;;;;5113972;28;20039;-88
2022/11/19 02:12:15;;;;;;;8.20;3.65;;;2.00;99.90;;;;;;5112451;28;20046;-87
2022/11/19 02:14:59;;;;;;;8.10;2.88;;;2.00;99.90;;;;;;5113627;28;20035;-88
2022/11/19 02:17:39;;;;;;;8.07;3.50;;;2.00;99.90;;;;;;5096358;28;20115;-88
2022/11/19 02:20:42;;;;;;;8.60;3.72;;;2.00;99.90;;;;;;5113984;28;20062;-88
2022/11/19 02:23:39;;;;;;;9.23;3.40;;;1.90;99.90;;;;;;5113449;28;20401;-88
2022/11/19 02:26:30;;;;;;;9.95;3.88;;;1.90;99.90;;;;;;5100451;28;20036;-85
2022/11/19 02:29:12;;;;;;;8.70;3.58;;;1.90;99.90;;;;;;5112958;28;20031;-86
2022/11/19 02:31:56;;;;;;;7.73;3.07;;;1.90;99.90;;;;;;5112771;28;20036;-86
2022/11/19 02:34:32;;;;;;;8.32;3.22;;;1.90;99.90;;;;;;5112979;28;20130;-86
2022/11/19 02:37:35;;;;;;;9.85;3.33;;;1.80;99.90;;;;;;5095694;28;20051;-86
2022/11/19 02:40:11;;;;;;;10.02;4.00;;;1.80;99.90;;;;;;5041300;28;20176;-86
2022/11/19 02:42:48;;;;;;;7.47;3.00;;;1.80;99.90;;;;;;5111841;28;20048;-86
2022/11/19 02:45:20;;;;;;;8.90;3.15;;;1.80;99.90;;;;;;5113161;28;20184;-86
2022/11/19 02:47:53;;;;;;;8.30;3.28;;;1.70;99.90;;;;;;5112603;28;20043;-86
2022/11/19 02:50:41;;;;;;;9.25;3.55;;;1.70;99.90;;;;;;5095886;28;20036;-86
2022/11/19 02:53:06;;;;;;;8.43;2.75;;;1.70;99.90;;;;;;5091440;28;20112;-86
2022/11/19 02:55:34;;;;;;;9.85;4.47;;;1.70;99.90;;;;;;5100373;28;20485;-86
2022/11/19 02:58:05;;;;;;;8.90;3.05;;;1.70;99.90;;;;;;5092924;28;20069;-86
2022/11/19 03:06:19;;;;;;;9.30;3.42;;;1.60;99.90;;;;;;5112055;28;20040;-86
2022/11/19 03:08:46;;;;;;;10.35;4.07;;;1.50;99.90;;;;;;5111980;28;20527;-86
2022/11/19 03:11:29;;;;;;;7.38;3.40;;;1.50;99.90;;;;;;5112944;28;20076;-86
2022/11/19 03:17:20;;;;;;;9.23;3.55;;;1.40;99.90;;;;;;5112601;28;20044;-86
2022/11/19 03:20:14;;;;;;;8.43;3.63;;;1.40;99.90;;;;;;5095396;28;20042;-85
2022/11/19 03:22:44;;;;;;;;;;;1.40;99.90;;;;;;5112250;28;20053;-86
2022/11/19 03:25:32;;;;;;;9.45;4.00;;;1.40;99.90;;;;;;5111358;28;19920;-86
2022/11/19 03:28:03;;;;;;;8.65;3.75;;;1.30;99.90;;;;;;5095418;28;20127;-86
2022/11/19 03:30:30;;;;;;;11.32;3.83;;;1.30;99.90;;;;;;5095129;28;20040;-86
2022/11/19 03:33:10;;;;;;;10.35;4.28;;;1.30;99.90;;;;;;5111263;28;20067;-86
2022/11/19 03:35:42;;;;;;;10.23;4.40;;;1.30;99.90;;;;;;5095267;28;20046;-86
2022/11/19 03:38:13;;;;;;;10.15;4.22;;;1.20;99.90;;;;;;5092669;28;20493;-86
2022/11/19 03:40:40;;;;;;;10.10;4.65;;;1.20;99.90;;;;;;5091702;28;20036;-86
2022/11/19 03:43:09;;;;;;;8.88;3.97;;;1.20;99.90;;;;;;5093319;28;20036;-85
2022/11/19 03:45:44;;;;;;;12.07;4.38;;;1.20;99.90;;;;;;5111691;28;20036;-86
2022/11/19 03:48:14;;;;;;;9.38;3.65;;;1.20;99.90;;;;;;5111879;28;20035;-86
2022/11/19 03:51:04;;;;;;;9.25;4.03;;;1.20;99.90;;;;;;5093502;28;20077;-86
2022/11/19 03:53:30;;;;;;;8.50;3.50;;;1.20;99.90;;;;;;5094689;28;20042;-86
2022/11/19 03:56:00;;;;;;;8.27;3.55;;;1.10;99.90;;;;;;5094696;28;20408;-86
2022/11/19 03:58:26;;;;;;;9.85;4.43;;;1.10;99.90;;;;;;5093572;28;20404;-86
2022/11/19 04:00:52;;;;;;;8.02;3.75;;;1.00;99.90;;;;;;5094473;28;20103;-86
2022/11/19 04:03:18;;;;;;;8.35;3.65;;;1.00;99.90;;;;;;5110638;28;20040;-87
2022/11/19 04:05:44;;;;;;;9.07;3.45;;;1.00;99.90;;;;;;5111034;28;20036;-86
2022/11/19 04:08:09;;;;;;;7.75;3.42;;;1.00;99.90;;;;;;5094404;28;20492;-86
2022/11/19 04:10:35;;;;;;;8.65;3.67;;;1.00;99.90;;;;;;5110495;28;20031;-86
2022/11/19 04:13:00;;;;;;;10.10;3.72;;;1.00;99.90;;;;;;5111229;28;20084;-86
2022/11/19 04:15:26;;;;;;;7.47;2.78;;;0.90;99.90;;;;;;5094522;28;20122;-86
2022/11/19 04:17:52;;;;;;;9.38;3.92;;;0.90;99.90;;;;;;5110343;28;20042;-85
2022/11/19 04:20:17;;;;;;;10.23;3.88;;;0.90;99.90;;;;;;5111141;28;20032;-86
2022/11/19 04:22:43;;;;;;;10.32;4.30;;;0.90;99.90;;;;;;5092655;28;20031;-86
2022/11/19 04:25:08;;;;;;;9.07;4.03;;;0.90;99.90;;;;;;5094209;28;20060;-86
2022/11/19 04:27:34;;;;;;;9.60;3.78;;;0.90;99.90;;;;;;5110130;28;20063;-86
2022/11/19 04:30:00;;;;;;;9.48;4.00;;;0.80;99.90;;;;;;5094403;28;20047;-86
2022/11/19 04:32:25;;;;;;;9.07;3.50;;;0.80;99.90;;;;;;5110164;28;20587;-86
2022/11/19 04:34:51;;;;;;;9.38;3.50;;;0.80;99.90;;;;;;5110134;28;20036;-86
2022/11/19 04:37:17;;;;;;;9.15;3.58;;;0.80;99.90;;;;;;5111023;28;20039;-86
2022/11/19 04:39:42;;;;;;;10.48;3.72;;;0.80;99.90;;;;;;5093696;28;20044;-85
2022/11/19 04:42:08;;;;;;;9.88;3.95;;;0.70;99.90;;;;;;5093156;28;20047;-85
2022/11/19 04:44:33;;;;;;;10.23;4.38;;;0.70;99.90;;;;;;5090459;28;20408;-86
2022/11/19 04:46:59;;;;;;;9.07;3.58;;;0.70;99.90;;;;;;5096880;28;20067;-86
2022/11/19 04:49:24;;;;;;;8.18;4.13;;;0.70;99.90;;;;;;5109991;28;20032;-86
2022/11/19 04:51:50;;;;;;;10.32;3.88;;;0.70;99.90;;;;;;5110561;28;20042;-86
2022/11/19 04:54:16;;;;;;;9.45;4.22;;;0.70;99.90;;;;;;5109226;28;20032;-86
2022/11/19 04:56:41;;;;;;;10.43;4.00;;;0.60;99.90;;;;;;5110628;28;20408;-86
2022/11/19 04:59:07;;;;;;;8.77;4.53;;;0.60;99.90;;;;;;5093383;28;20068;-85
2022/11/19 05:01:32;;;;;;;8.15;4.03;;;0.60;99.90;;;;;;5110399;28;20039;-85
2022/11/19 05:03:58;;;;;;;8.50;3.75;;;0.60;99.90;;;;;;5093011;28;20047;-86
2022/11/19 05:06:24;;;;;;;9.73;4.13;;;0.60;99.90;;;;;;5109559;28;20036;-85
2022/11/19 05:08:49;;;;;;;9.52;3.95;;;0.50;99.90;;;;;;5110316;28;20036;-85
2022/11/19 05:11:15;;;;;;;9.38;4.28;;;0.50;99.90;;;;;;5093107;28;20172;-85
2022/11/19 05:13:40;;;;;;;9.25;4.10;;;0.50;99.90;;;;;;5092851;28;20555;-86
2022/11/19 05:16:06;;;;;;;10.77;4.57;;;0.50;99.90;;;;;;5093225;28;20091;-86
2022/11/19 05:18:32;;;;;;;9.23;4.03;;;0.50;99.90;;;;;;5109182;28;20195;-86
2022/11/19 05:20:57;;;;;;;11.48;4.22;;;0.50;99.90;;;;;;5110584;28;20031;-86
2022/11/19 05:23:24;;;;;;;11.48;4.18;;;0.50;99.90;;;;;;5109602;28;20513;-86
2022/11/19 05:25:50;;;;;;;10.48;4.65;;;0.40;99.90;;;;;;5109979;28;20047;-86
2022/11/19 05:28:15;;;;;;;10.38;4.38;;;0.40;99.90;;;;;;5110602;28;20551;-86
2022/11/19 05:30:41;;;;;;;11.07;4.47;;;0.40;99.90;;;;;;5109165;28;20031;-86
2022/11/19 05:33:06;;;;;;;12.50;4.25;;;0.40;99.90;;;;;;5110208;28;20110;-86
2022/11/19 05:35:32;;;;;;;13.60;4.53;;;0.40;99.90;;;;;;5092007;28;20032;-86
2022/11/19 05:37:58;;;;;;;11.75;5.20;;;0.40;99.90;;;;;;5110214;28;20039;-86
2022/11/19 05:40:23;;;;;;;12.32;5.45;;;0.40;99.90;;;;;;5110352;28;20032;-86
2022/11/19 05:42:49;;;;;;;11.38;5.07;;;0.30;99.90;;;;;;5102137;28;20040;-86
2022/11/19 05:45:15;;;;;;;9.38;3.92;;;0.30;99.90;;;;;;5072903;28;20044;-86
2022/11/19 05:47:40;;;;;;;11.50;4.75;;;0.30;99.90;;;;;;5089693;28;20066;-86
2022/11/19 05:50:06;;;;;;;10.43;4.53;;;0.30;99.90;;;;;;5108893;28;20043;-86
2022/11/19 05:52:32;;;;;;;10.45;4.82;;;0.30;99.90;;;;;;5109836;28;20043;-86
2022/11/19 05:54:58;;;;;;;10.55;5.18;;;0.30;99.90;;;;;;5092862;28;20142;-86
2022/11/19 05:57:23;;;;;;;9.68;4.63;;;0.30;99.90;;;;;;5109684;28;20032;-86
2022/11/19 05:59:49;;;;;;;11.63;5.30;;;0.30;99.90;;;;;;5110098;28;20107;-86
2022/11/19 06:02:14;;;;;;;11.23;4.82;;;0.20;99.90;;;;;;5092211;28;20043;-86
2022/11/19 06:04:40;;;;;;;9.70;4.53;;;0.20;99.90;;;;;;5109465;28;20051;-86
2022/11/19 06:07:06;;;;;;;13.10;6.75;;;0.20;99.90;;;;;;5092490;28;20031;-86
2022/11/19 06:09:31;;;;;;;11.02;6.22;;;0.20;99.90;;;;;;5109469;28;20088;-86
2022/11/19 06:11:57;;;;;;;11.18;5.25;;;0.20;99.90;;;;;;5110147;28;20035;-86
2022/11/19 06:14:24;;;;;;;12.35;5.68;;;0.10;99.90;;;;;;5100158;28;20507;-86
2022/11/19 06:16:51;;;;;;;12.75;5.65;;;0.10;99.90;;;;;;5089720;28;20123;-85
2022/11/19 06:19:18;;;;;;;11.98;6.70;;;0.10;99.90;;;;;;5078836;28;20031;-86
2022/11/19 06:21:44;;;;;;;11.77;5.18;;;0.10;99.90;;;;;;5109083;28;20047;-86
2022/11/19 06:24:11;;;;;;;13.82;7.05;;;0.10;99.90;;;;;;5092098;28;20035;-86
2022/11/19 06:26:37;;;;;;;10.93;5.03;;;0.10;99.90;;;;;;5108621;28;20548;-86
2022/11/19 06:29:03;;;;;;;12.93;6.65;;;0.10;99.90;;;;;;5110106;28;20046;-86
2022/11/19 06:31:29;;;;;;;13.27;6.18;;;0.10;99.90;;;;;;5111800;28;20040;-86
2022/11/19 06:33:55;;;;;;;11.85;5.35;;;0.10;99.90;;;;;;5113186;28;20042;-86
2022/11/19 06:36:21;;;;;;;10.95;5.22;;;0.10;99.90;;;;;;5092258;28;20070;-86
2022/11/19 06:38:47;;;;;;;11.75;6.03;;;0.10;99.90;;;;;;5108127;28;20042;-86
2022/11/19 06:41:12;;;;;;;12.05;6.28;;;0.10;99.90;;;;;;5096295;28;20126;-86
2022/11/19 06:43:38;;;;;;;11.60;5.53;;;0.00;99.90;;;;;;5111580;28;20048;-86
2022/11/19 06:46:04;;;;;;;11.75;5.85;;;0.00;99.90;;;;;;5112826;28;20032;-86
2022/11/19 06:48:30;;;;;;;11.90;5.82;;;0.00;99.90;;;;;;5096313;28;20038;-86
2022/11/19 06:50:56;;;;;;;11.07;5.70;;;0.00;99.90;;;;;;5111649;28;20071;-86
2022/11/19 06:53:21;;;;;;;13.18;5.93;;;0.00;99.90;;;;;;5096000;28;20085;-85
2022/11/19 06:55:47;;;;;;;11.75;5.53;;;0.00;99.90;;;;;;5095637;28;20039;-86
2022/11/19 06:58:16;;;;;;;13.40;6.18;;;0.00;99.90;;;;;;5095836;28;20031;-86
2022/11/19 07:00:41;;;;;;;15.02;6.43;;;0.00;99.90;;;;;;5112676;28;20119;-86
2022/11/19 07:03:07;;;;;;;13.30;6.50;;;0.00;99.90;;;;;;5110940;28;20469;-86
2022/11/19 07:05:32;;;;;;;12.27;5.90;;;0.00;99.90;;;;;;5112803;28;20526;-86
2022/11/19 07:07:58;;;;;;;12.70;6.45;;;0.00;99.90;;;;;;5093809;28;20397;-88
2022/11/19 07:10:23;;;;;;;11.68;5.68;;;0.00;99.90;;;;;;5092324;28;20128;-86
2022/11/19 07:12:49;;;;;;;11.32;5.82;;;-0.10;99.90;;;;;;5091790;28;20070;-86
2022/11/19 07:15:15;;;;;;;10.90;5.65;;;-0.10;99.90;;;;;;5104517;28;20492;-86
2022/11/19 07:17:41;;;;;;;11.43;6.20;;;-0.10;99.90;;;;;;5112866;28;20043;-86
2022/11/19 07:20:07;;;;;;;14.68;6.40;;;0.00;99.90;;;;;;5094223;28;20039;-85
2022/11/19 07:22:33;;;;;;;12.27;6.18;;;0.00;99.90;;;;;;5112379;28;20040;-86
2022/11/19 07:24:58;;;;;;;11.43;6.00;;;0.00;99.90;;;;;;5094735;28;20481;-86
2022/11/19 07:27:24;;;;;;;13.27;5.95;;;-0.10;99.90;;;;;;5112021;28;20044;-86
2022/11/19 07:29:49;;;;;;;12.50;6.07;;;0.00;99.90;;;;;;5095360;28;20032;-86
2022/11/19 07:32:15;;;;;;;15.18;6.53;;;-0.10;99.90;;;;;;5104760;28;20472;-86
2022/11/19 07:34:41;;;;;;;11.43;6.32;;;-0.10;99.90;;;;;;5092052;28;20127;-86
2022/11/19 07:37:06;;;;;;;10.50;5.50;;;-0.10;99.90;;;;;;5086649;28;20035;-86
2022/11/19 07:39:32;;;;;;;11.50;5.47;;;-0.10;99.90;;;;;;5111789;28;20493;-86
2022/11/19 07:44:41;;;;;;;11.18;5.63;;;-0.10;99.90;;;;;;5111302;28;20116;-86
2022/11/19 07:47:08;;;;;;;12.35;5.80;;;-0.10;99.90;;;;;;5095047;28;20081;-86
2022/11/19 07:49:33;;;;;;;10.73;5.05;;;0.00;99.90;;;;;;5094041;28;20677;-86
2022/11/19 07:51:59;;;;;;;12.40;5.75;;;0.00;99.90;;;;;;5113064;28;20067;-86
2022/11/19 07:54:24;;;;;;;11.32;5.18;;;0.00;99.90;;;;;;5093904;28;20390;-86
2022/11/19 07:56:50;;;;;;;11.93;6.03;;;0.00;99.90;;;;;;5111452;28;20105;-86
2022/11/19 07:59:16;;;;;;;11.85;5.22;;;0.00;99.90;;;;;;5112016;28;20508;-86
2022/11/19 08:01:42;;;;;;;11.73;5.63;;;0.00;99.90;;;;;;5110510;28;20488;-86
2022/11/19 08:04:07;;;;;;;11.13;5.53;;;0.00;99.90;;;;;;5111345;28;20048;-86
2022/11/19 08:06:33;;;;;;;14.25;5.88;;;0.00;99.90;;;;;;5110816;28;20404;-86
2022/11/19 08:09:00;;;;;;;13.07;6.82;;;0.10;99.90;;;;;;5110796;28;20440;-87
2022/11/19 08:11:26;;;;;;;11.75;5.80;;;0.10;99.90;;;;;;5111083;28;20378;-86
2022/11/19 08:13:52;;;;;;;13.65;6.30;;;0.10;99.90;;;;;;5110615;28;20047;-86
2022/11/19 08:19:08;;;;;;;12.48;5.32;;;0.10;99.90;;;;;;5110619;28;20424;-86
2022/11/19 08:21:34;;;;;;;10.85;4.90;;;0.20;99.90;;;;;;5092879;28;20488;-85
2022/11/19 08:24:00;;;;;;;14.02;5.50;;;0.20;99.90;;;;;;5109413;28;20040;-86
2022/11/19 08:26:26;;;;;;;12.18;5.40;;;0.20;99.90;;;;;;5091750;28;20088;-86
2022/11/19 08:28:52;;;;;;;10.73;5.05;;;0.20;99.90;;;;;;5110002;28;20039;-86
2022/11/19 08:31:18;;;;;;;11.70;5.43;;;0.30;99.90;;;;;;5093039;28;20527;-86
2022/11/19 08:33:43;;;;;;;10.93;5.05;;;0.30;99.90;;;;;;5109194;28;20122;-86
2022/11/19 08:36:09;;;;;;;9.63;5.07;;;0.30;99.90;;;;;;5110977;28;20054;-85
2022/11/19 08:38:34;;;;;;;12.30;5.40;;;0.30;99.90;;;;;;5109461;28;20035;-86
2022/11/19 08:43:44;;;;;;;11.52;5.00;;;0.40;99.90;;;;;;5106820;28;20492;-86
2022/11/19 08:46:09;;;;;;;10.75;5.20;;;0.50;99.90;;;;;;5110066;28;20040;-86
2022/11/19 08:48:35;;;;;;;14.02;5.45;;;0.50;99.90;;;;;;5092724;28;20027;-86
2022/11/19 08:51:05;;;;;;;12.18;5.18;;;0.50;99.90;;;;;;5109618;28;20051;-86
2022/11/19 08:53:32;;;;;;;12.10;5.65;;;0.60;99.90;;;;;;5110293;28;20083;-86
2022/11/19 08:55:57;;;;;;;11.70;5.38;;;0.60;99.90;;;;;;5109593;28;20066;-86
2022/11/19 08:58:23;;;;;;;10.52;4.60;;;0.60;99.90;;;;;;5093774;28;20187;-87
2022/11/19 09:00:49;;;;;;;12.32;5.13;;;0.70;99.90;;;;;;5110682;28;20039;-86
2022/11/19 09:03:15;;;;;;;12.23;5.50;;;0.70;99.90;;;;;;5076808;28;20523;-86
2022/11/19 09:05:40;;;;;;;10.20;4.85;;;0.80;99.90;;;;;;5090299;28;20439;-86
2022/11/19 09:08:06;;;;;;;11.38;5.68;;;0.80;99.90;;;;;;5099252;28;20511;-87
2022/11/19 09:10:32;;;;;;;12.05;4.70;;;0.90;99.90;;;;;;5110411;28;20599;-87
2022/11/19 09:13:00;;;;;;;10.73;5.28;;;0.90;99.90;;;;;;5092612;28;20036;-87
2022/11/19 09:15:26;;;;;;;10.93;5.95;;;1.00;99.90;;;;;;5109565;28;20085;-85
2022/11/19 09:17:52;;;;;;;10.77;5.22;;;1.10;99.90;;;;;;5110054;28;20040;-86
2022/11/19 09:20:17;;;;;;;10.93;5.47;;;1.10;99.90;;;;;;5080941;28;20086;-86
2022/11/19 09:22:43;;;;;;;10.80;5.20;;;1.20;99.90;;;;;;5089755;28;20040;-86
2022/11/19 09:25:09;;;;;;;12.27;6.00;;;1.20;99.90;;;;;;5084212;28;20039;-85
2022/11/19 09:27:35;;;;;;;11.85;5.40;;;1.30;99.90;;;;;;5110071;28;20070;-86
2022/11/19 09:30:01;;;;;;;13.50;5.95;;;1.40;99.90;;;;;;5082729;28;20430;-86
2022/11/19 09:32:27;;;;;;;12.65;6.15;;;1.40;99.90;;;;;;5097248;28;20405;-86
2022/11/19 09:34:53;;;;;;;11.20;5.78;;;1.50;99.90;;;;;;5089720;28;20032;-85
2022/11/19 09:37:19;;;;;;;9.93;5.20;;;1.50;99.90;;;;;;5095295;28;20408;-85
2022/11/19 09:39:44;;;;;;;12.23;6.07;;;1.60;99.90;;;;;;5109322;28;20047;-86
2022/11/19 09:42:27;;;;;;;10.88;5.85;;;1.70;99.90;;;;;;5109254;28;20039;-86
2022/11/19 09:45:37;;;;;;;11.13;5.15;;;1.80;99.90;;;;;;5091886;28;20042;-86
2022/11/19 09:48:29;;;;;;;11.38;5.55;;;1.80;99.90;;;;;;5031650;28;20070;-86
2022/11/19 09:51:10;;;;;;;12.10;5.53;;;1.90;99.90;;;;;;5092700;28;20040;-86
2022/11/19 09:53:46;;;;;;;12.55;5.95;;;2.00;99.90;;;;;;5109834;28;20044;-86
2022/11/19 09:56:20;;;;;;;10.75;5.13;;;2.00;99.90;;;;;;5091950;28;20374;-86
2022/11/19 09:58:45;;;;;;;11.32;5.32;;;2.10;99.90;;;;;;5093216;28;20044;-86
2022/11/19 10:01:16;;;;;;;11.48;5.55;;;2.20;99.90;;;;;;5108830;28;20039;-86
2022/11/19 10:03:47;;;;;;;11.32;5.65;;;2.20;99.90;;;;;;5111574;28;20047;-86
2022/11/19 10:06:13;;;;;;;10.73;5.70;;;2.30;99.90;;;;;;5113475;28;20071;-86
2022/11/19 10:09:11;;;;;;;11.98;5.55;;;2.40;99.90;;;;;;5113939;28;20086;-86
2022/11/19 10:11:46;;;;;;;11.88;5.38;;;2.50;99.90;;;;;;5113278;28;20035;-86
2022/11/19 10:14:36;;;;;;;10.98;5.20;;;2.60;99.90;;;;;;5098517;28;20075;-86
2022/11/19 10:17:21;;;;;;;11.93;5.32;;;2.80;99.90;;;;;;5076533;28;20055;-87
2022/11/19 10:19:53;;;;;;;10.77;5.25;;;2.80;99.90;;;;;;5100975;28;20132;-86
2022/11/19 10:22:24;;;;;;;11.45;5.53;;;3.00;99.90;;;;;;5092633;28;20059;-86
2022/11/19 10:25:04;;;;;;;12.27;5.97;;;3.10;99.90;;;;;;5105678;28;20039;-87
2022/11/19 10:27:46;;;;;;;12.48;5.57;;;3.30;99.90;;;;;;5084436;28;20498;-87
2022/11/19 10:30:15;;;;;;;11.38;4.97;;;3.40;99.90;;;;;;5104341;28;20046;-86
2022/11/19 10:33:11;;;;;;;11.75;6.05;;;3.60;99.90;;;;;;5112925;28;20401;-86
2022/11/19 10:36:10;;;;;;;11.20;5.57;;;3.70;99.90;;;;;;5104770;28;20048;-86
2022/11/19 10:38:48;;;;;;;11.15;5.78;;;3.90;99.90;;;;;;5095451;28;20039;-87
2022/11/19 10:41:20;;;;;;;11.05;5.53;;;4.00;99.90;;;;;;5113083;28;20054;-87
2022/11/19 10:44:05;;;;;;;12.07;5.65;;;4.10;99.90;;;;;;5111859;28;20369;-86
2022/11/19 10:46:30;;;;;;;12.98;6.03;;;4.30;99.90;;;;;;5112803;28;20035;-87
2022/11/19 10:49:01;;;;;;;11.50;5.50;;;4.40;99.90;;;;;;5094423;28;20041;-86
2022/11/19 10:51:40;;;;;;;11.35;5.35;;;4.60;99.90;;;;;;5112865;28;20036;-87
2022/11/19 10:54:20;;;;;;;10.40;4.80;;;4.70;99.00;;;;;;5111575;28;20089;-87
2022/11/19 10:56:46;;;;;;;9.50;4.72;;;4.90;99.70;;;;;;5096623;28;20044;-87
2022/11/19 10:59:15;;;;;;;9.43;4.78;;;5.00;99.90;;;;;;5092528;28;20405;-87
2022/11/19 11:01:43;;;;;;;10.43;4.93;;;5.10;99.90;;;;;;5099951;28;20046;-86
2022/11/19 11:04:20;;;;;;;9.98;4.57;;;5.30;99.40;;;;;;5108624;28;20071;-86
2022/11/19 11:06:57;;;;;;;10.90;4.95;;;5.30;95.60;;;;;;5093046;28;20047;-85
2022/11/19 11:09:31;;;;;;;10.70;5.45;;;5.50;96.10;;;;;;5112001;28;20046;-86
2022/11/19 11:14:53;;;;;;;9.77;4.78;;;5.70;98.10;;;;;;5110551;28;20506;-86
2022/11/19 11:17:29;;;;;;;9.20;4.68;;;5.90;97.00;;;;;;5095533;28;20549;-86
2022/11/19 11:19:57;;;;;;;9.60;4.95;;;6.00;95.40;;;;;;5111285;28;20031;-86
2022/11/19 11:22:23;;;;;;;9.27;4.32;;;6.10;93.10;;;;;;5112146;28;20043;-86
2022/11/19 11:24:48;;;;;;;10.13;4.65;;;6.10;93.50;;;;;;5108827;28;20038;-87
2022/11/19 11:27:29;;;;;;;10.52;4.63;;;6.30;94.00;;;;;;5092782;28;20036;-87
2022/11/19 11:30:12;;;;;;;9.55;4.22;;;6.40;91.90;;;;;;5099685;28;20047;-86
2022/11/19 11:32:39;;;;;;;9.35;4.18;;;6.60;91.10;;;;;;5094746;28;20042;-86
2022/11/19 11:35:25;;;;;;;8.05;3.80;;;6.80;92.20;;;;;;5080582;28;20058;-85
2022/11/19 11:37:51;;;;;;;8.63;3.97;;;6.90;90.40;;;;;;5111543;28;20504;-87
2022/11/19 11:40:19;;;;;;;8.23;3.70;;;6.90;89.50;;;;;;5093557;28;20043;-86
2022/11/19 11:42:45;;;;;;;7.85;3.35;;;7.20;89.20;;;;;;5094368;28;20126;-86
2022/11/19 11:45:21;;;;;;;8.35;3.67;;;7.40;88.20;;;;;;5105740;28;20115;-87
2022/11/19 11:47:47;;;;;;;9.57;4.40;;;7.60;86.20;;;;;;5072510;28;20044;-87
2022/11/19 11:50:23;;;;;;;10.57;4.50;;;7.70;88.70;;;;;;5090375;28;20444;-87
2022/11/19 11:52:51;;;;;;;11.93;4.72;;;8.00;80.40;;;;;;5087170;28;20050;-86
2022/11/19 11:55:23;;;;;;;9.43;4.05;;;8.30;86.00;;;;;;5111645;28;20044;-87
2022/11/19 11:57:55;;;;;;;8.63;4.50;;;8.60;84.00;;;;;;5094924;28;20066;-89
2022/11/19 12:00:34;;;;;;;7.97;4.15;;;9.50;84.90;;;;;;5110638;28;20047;-87
2022/11/19 12:03:07;;;;;;;9.88;4.45;;;10.60;82.00;;;;;;5111379;28;20039;-87
2022/11/19 12:05:51;;;;;;;8.35;4.30;;;11.70;76.10;;;;;;5111013;28;20469;-87
2022/11/19 12:09:00;;;;;;;9.50;4.50;;;12.60;70.90;;;;;;5111741;28;20043;-87
2022/11/19 12:12:00;;;;;;;8.60;4.03;;;13.00;66.50;;;;;;5109997;28;20039;-87
2022/11/19 12:14:45;;;;;;;7.43;3.67;;;13.50;65.80;;;;;;5111772;28;20046;-87
2022/11/19 12:17:41;;;;;;;8.63;4.30;;;13.90;64.40;;;;;;5098904;28;20040;-88
2022/11/19 12:20:22;;;;;;;9.27;5.70;;;14.30;63.20;;;;;;5111254;28;20059;-87
2022/11/19 12:22:59;;;;;;;8.18;5.03;;;15.10;61.10;;;;;;5110028;28;20051;-88
2022/11/19 12:26:11;;;;;;;7.70;4.70;;;16.00;61.10;;;;;;5110150;28;20143;-88
2022/11/19 12:28:45;;;;;;;8.68;5.05;;;16.90;52.00;;;;;;5110777;28;20119;-88
2022/11/19 12:31:23;;;;;;;10.77;4.82;;;17.70;54.30;;;;;;5108085;28;20035;-88
2022/11/19 12:33:51;;;;;;;8.30;4.40;;;18.80;51.00;;;;;;5092933;28;20043;-88
2022/11/19 12:36:55;;;;;;;7.72;4.18;;;19.80;50.00;;;;;;5110103;28;20122;-88
2022/11/19 12:39:50;;;;;;;8.02;4.97;;;20.70;47.20;;;;;;5110599;28;20055;-88
2022/11/19 12:42:34;;;;;;;7.32;4.60;;;21.60;47.00;;;;;;5105603;28;20044;-88
2022/11/19 12:45:38;;;;;;;7.80;4.45;;;22.30;45.60;;;;;;5110245;28;20050;-88
2022/11/19 12:48:36;;;;;;;8.23;5.60;;;23.00;41.40;;;;;;5084788;28;20086;-89
2022/11/19 12:51:11;;;;;;;8.05;4.90;;;23.70;41.70;;;;;;5110393;28;20118;-89
2022/11/19 12:53:37;;;;;;;10.07;5.55;;;24.10;40.30;;;;;;5110989;28;20080;-89
2022/11/19 12:56:28;;;;;;;9.40;5.05;;;24.50;39.60;;;;;;5093627;28;20538;-88
2022/11/19 12:59:02;;;;;;;7.82;4.25;;;24.50;38.50;;;;;;5090766;28;20078;-89
2022/11/19 13:01:37;;;;;;;7.88;3.85;;;25.00;38.90;;;;;;5072888;28;20104;-89
2022/11/19 13:04:28;;;;;;;7.28;3.83;;;25.20;36.00;;;;;;5088967;28;20051;-89
2022/11/19 13:07:01;;;;;;;6.95;4.05;;;25.50;36.40;;;;;;5072442;28;20111;-89
2022/11/19 13:09:50;;;;;;;6.72;3.75;;;25.90;36.40;;;;;;5084360;28;20401;-89
2022/11/19 13:12:20;;;;;;;7.20;3.65;;;25.80;34.60;;;;;;5088106;28;20034;-90
2022/11/19 13:14:56;;;;;;;8.23;3.60;;;25.90;35.10;;;;;;5079444;28;20044;-90
2022/11/19 13:17:41;;;;;;;6.70;3.47;;;26.40;34.80;;;;;;5079915;28;20040;-90
2022/11/19 13:20:16;;;;;;;6.63;3.58;;;26.50;33.80;;;;;;5077330;28;20529;-90
2022/11/19 13:22:45;;;;;;;6.82;3.75;;;26.50;32.80;;;;;;5086511;28;20040;-90
2022/11/19 13:25:31;;;;;;;7.18;3.58;;;26.40;33.00;;;;;;5093286;28;20043;-90
2022/11/19 13:28:00;;;;;;;7.03;3.72;;;26.90;33.20;;;;;;5082311;28;20075;-90
2022/11/19 13:30:27;;;;;;;6.90;3.60;;;26.90;32.80;;;;;;5067128;28;20047;-90
2022/11/19 13:33:08;;;;;;;6.88;3.40;;;27.10;32.10;;;;;;5072502;28;20051;-90
2022/11/19 13:35:51;;;;;;;7.63;3.77;;;27.10;32.00;;;;;;5089578;28;20047;-90